Time;durP1;ratioP1;P1;durP2;ratioP2;P2;SDS_P1;SDS_P2;PMS_P1;PMS_P2;Temp;Humidity;BMP_temperature;BMP_pressure;BME280_temperature;BME280_humidity;BME280_pressure;Samples;Min_cycle;Max_cycle;Signal;HPM_P1;HPM_P2
2022/01/04 05:32:23;;;;;;;;;0.00;0.00;;;;;11.83;73.50;99538.84;5063029;27;46331;-76
2022/01/04 05:34:48;;;;;;;;;0.00;0.00;;;;;11.81;73.58;99539.00;5057108;28;45387;-76
2022/01/04 05:37:14;;;;;;;;;0.00;0.00;;;;;11.79;73.24;99530.16;5056796;28;46567;-76
2022/01/04 05:39:39;;;;;;;;;0.00;0.00;;;;;11.83;72.89;99531.66;5057145;28;45308;-76
2022/01/04 05:42:08;;;;;;;;;1.00;0.00;;;;;11.72;72.75;99518.97;5056938;28;45321;-77
2022/01/04 05:44:33;;;;;;;;;0.00;0.00;;;;;11.82;72.81;99543.41;5056030;28;45560;-76
2022/01/04 05:46:59;;;;;;;;;0.00;0.00;;;;;11.70;72.85;99517.34;5056712;28;45407;-75
2022/01/04 05:49:24;;;;;;;;;0.00;0.00;;;;;11.71;72.83;99522.63;5056871;28;45378;-76
2022/01/04 05:51:49;;;;;;;;;0.00;0.00;;;;;11.77;72.90;99528.56;5056731;28;45350;-77
2022/01/04 05:54:15;;;;;;;;;0.25;0.00;;;;;11.75;72.81;99536.72;5056834;28;45520;-75
2022/01/04 05:56:40;;;;;;;;;0.25;0.00;;;;;11.78;72.78;99549.06;5056316;28;45441;-75
2022/01/04 05:59:06;;;;;;;;;0.00;0.00;;;;;11.75;72.50;99539.38;5056676;28;45390;-77
2022/01/04 06:01:31;;;;;;;;;0.00;0.00;;;;;11.50;72.34;99499.09;5056504;28;45768;-75
2022/01/04 06:03:56;;;;;;;;;0.00;0.00;;;;;11.77;72.34;99533.91;5056969;28;45611;-76
2022/01/04 06:06:22;;;;;;;;;0.00;0.00;;;;;11.69;72.26;99508.44;5057417;28;45402;-75
2022/01/04 06:08:48;;;;;;;;;0.00;0.00;;;;;11.76;72.70;99527.69;5056850;28;45520;-76
2022/01/04 06:11:55;;;;;;;;;0.00;0.00;;;;;11.76;72.09;99533.06;5038380;28;45483;-77
2022/01/04 06:16:59;;;;;;;;;0.00;0.00;;;;;11.74;71.93;99519.72;5056291;28;45304;-76
2022/01/04 06:19:24;;;;;;;;;0.00;0.00;;;;;11.64;71.61;99502.53;5059365;28;46477;-75
2022/01/04 06:21:49;;;;;;;;;0.00;0.00;;;;;11.72;72.20;99528.84;5038429;28;45280;-75
2022/01/04 06:24:15;;;;;;;;;0.00;0.00;;;;;11.64;72.32;99524.03;5056178;28;45613;-75
2022/01/04 06:26:40;;;;;;;;;3.00;0.00;;;;;11.68;72.66;99548.81;5056392;28;45154;-73
2022/01/04 06:29:08;;;;;;;;;0.50;0.00;;;;;11.59;72.00;99538.72;5037737;28;45518;-75
2022/01/04 06:31:33;;;;;;;;;2.00;0.00;;;;;11.69;71.54;99567.50;5055908;28;45461;-75
2022/01/04 06:33:59;;;;;;;;;0.00;0.00;;;;;11.61;71.66;99544.84;5056104;28;45550;-75
2022/01/04 06:36:24;;;;;;;;;0.00;0.00;;;;;11.70;71.50;99549.56;5056029;28;46443;-79
2022/01/04 06:38:49;;;;;;;;;0.00;0.00;;;;;11.69;71.60;99566.66;5057211;28;45330;-77
2022/01/04 06:41:15;;;;;;;;;0.75;0.00;;;;;11.63;72.22;99550.97;5056731;28;45588;-75
2022/01/04 06:43:40;;;;;;;;;0.00;0.00;;;;;11.64;71.73;99560.75;5055757;28;45336;-74
2022/01/04 06:46:06;;;;;;;;;2.00;0.00;;;;;11.64;71.15;99574.16;5056118;28;46543;-77
2022/01/04 06:48:31;;;;;;;;;0.00;0.00;;;;;11.61;71.63;99566.31;5055568;28;45414;-75
2022/01/04 06:50:57;;;;;;;;;0.00;0.00;;;;;11.61;71.96;99575.22;5055772;28;45288;-75
2022/01/04 06:53:22;;;;;;;;;0.25;0.25;;;;;11.53;71.87;99577.59;5055509;28;45565;-73
2022/01/04 06:55:50;;;;;;;;;1.25;0.00;;;;;11.58;71.06;99590.66;5055785;28;46266;-75
2022/01/04 06:58:16;;;;;;;;;1.00;1.00;;;;;11.48;71.48;99590.47;5055701;28;45387;-78
2022/01/04 07:00:42;;;;;;;;;1.00;1.00;;;;;11.41;71.63;99601.69;5055934;28;45473;-79
2022/01/04 07:03:07;;;;;;;;;3.50;3.50;;;;;11.41;71.61;99615.09;5055134;28;45371;-75
2022/01/04 07:05:35;;;;;;;;;1.00;1.00;;;;;11.35;72.72;99622.63;5055389;28;45326;-76
2022/01/04 07:08:01;;;;;;;;;1.00;1.00;;;;;11.28;72.88;99605.22;5054202;28;45501;-76
2022/01/04 07:10:26;;;;;;;;;2.50;2.25;;;;;11.22;73.51;99602.09;5050959;28;45461;-77
2022/01/04 07:12:51;;;;;;;;;1.25;1.25;;;;;11.24;73.70;99610.88;5052389;28;45699;-76
2022/01/04 07:15:17;;;;;;;;;5.75;4.00;;;;;11.18;73.27;99609.47;5053493;28;45394;-76
2022/01/04 07:17:42;;;;;;;;;3.75;3.75;;;;;11.08;73.20;99600.31;5054480;28;45451;-76
2022/01/04 07:20:09;;;;;;;;;2.75;2.75;;;;;11.05;73.19;99608.56;5036928;28;45453;-77
2022/01/04 07:22:34;;;;;;;;;4.00;4.00;;;;;10.99;73.51;99600.91;5053166;28;45346;-76
2022/01/04 07:25:00;;;;;;;;;3.25;3.25;;;;;10.90;73.97;99586.28;5053659;28;45770;-76
2022/01/04 07:27:25;;;;;;;;;5.25;4.25;;;;;10.94;74.46;99592.31;5054111;28;45370;-77
2022/01/04 07:29:50;;;;;;;;;3.25;3.25;;;;;10.86;74.22;99579.41;5054601;28;45355;-75
2022/01/04 07:32:19;;;;;;;;;5.25;4.00;;;;;11.00;73.81;99624.94;5054043;28;45531;-76
2022/01/04 07:34:44;;;;;;;;;4.50;4.00;;;;;10.90;73.86;99617.59;5054237;28;45417;-78
2022/01/04 07:37:13;;;;;;;;;8.50;5.00;;;;;10.97;74.39;99633.19;5054514;28;45488;-76
2022/01/04 07:39:39;;;;;;;;;3.00;3.00;;;;;10.94;73.38;99625.34;5055090;28;45465;-76
2022/01/04 07:42:04;;;;;;;;;5.00;5.00;;;;;10.82;73.52;99604.69;5054898;28;45241;-76
2022/01/04 07:44:30;;;;;;;;;3.75;3.25;;;;;10.91;73.08;99628.22;5055006;28;45308;-76
2022/01/04 07:46:55;;;;;;;;;3.00;3.00;;;;;10.81;73.05;99608.31;5055311;28;45381;-76
2022/01/04 07:49:21;;;;;;;;;3.00;3.00;;;;;10.90;72.81;99629.19;5055022;28;45477;-77
2022/01/04 07:51:46;;;;;;;;;4.50;4.50;;;;;10.90;72.55;99642.59;5054355;28;46517;-76
2022/01/04 07:54:12;;;;;;;;;2.25;2.25;;;;;10.53;73.04;99598.56;5054729;28;46104;-75
2022/01/04 07:56:38;;;;;;;;;4.00;1.25;;;;;10.85;72.68;99655.44;5054817;28;45224;-76
2022/01/04 07:59:04;;;;;;;;;1.00;1.00;;;;;10.84;73.03;99655.53;5054913;28;45469;-76
2022/01/04 08:01:30;;;;;;;;;2.50;2.50;;;;;10.80;73.31;99672.78;5054414;28;45517;-76
2022/01/04 08:03:56;;;;;;;;;3.50;1.75;;;;;10.81;72.98;99685.22;5054804;28;45438;-76
2022/01/04 08:06:21;;;;;;;;;1.00;1.00;;;;;10.81;73.27;99696.81;5053692;28;45421;-77
2022/01/04 08:08:47;;;;;;;;;1.00;1.00;;;;;10.77;72.17;99681.03;5054996;28;45304;-77
2022/01/04 08:11:12;;;;;;;;;0.75;0.75;;;;;10.53;72.63;99641.44;5054325;28;45446;-76
2022/01/04 08:13:38;;;;;;;;;0.00;0.00;;;;;10.78;72.28;99696.16;5054686;28;45563;-77
2022/01/04 08:16:03;;;;;;;;;0.00;0.00;;;;;10.71;72.07;99700.19;5054475;28;45361;-77
2022/01/04 08:18:29;;;;;;;;;2.50;0.50;;;;;10.67;72.40;99707.53;5054914;28;45232;-76
2022/01/04 08:20:57;;;;;;;;;1.00;0.00;;;;;10.78;72.90;99720.28;5054264;28;45455;-76
2022/01/04 08:23:24;;;;;;;;;0.00;0.00;;;;;10.86;72.52;99726.88;5054599;28;45446;-77
2022/01/04 08:25:50;;;;;;;;;2.25;1.00;;;;;10.85;72.56;99724.28;5054016;28;45289;-77
2022/01/04 08:28:15;;;;;;;;;2.00;1.00;;;;;10.86;72.83;99701.88;5054424;28;45509;-75
2022/01/04 08:30:42;;;;;;;;;2.00;2.00;;;;;10.60;73.30;99656.16;5053704;28;45520;-77
2022/01/04 08:33:11;;;;;;;;;0.00;0.00;;;;;10.85;72.73;99695.66;5054457;28;45326;-76
2022/01/04 08:35:38;;;;;;;;;0.50;0.50;;;;;10.86;72.85;99710.78;5053979;28;45466;-78
2022/01/04 08:38:05;;;;;;;;;0.00;0.00;;;;;10.96;72.71;99736.06;5054388;28;45269;-77
2022/01/04 08:40:30;;;;;;;;;1.50;0.00;;;;;10.93;71.99;99722.84;5035938;28;45362;-77
2022/01/04 08:42:56;;;;;;;;;0.00;0.00;;;;;10.92;72.40;99721.13;5054616;28;46211;-76
2022/01/04 08:45:23;;;;;;;;;1.00;0.00;;;;;10.93;72.70;99720.16;5054075;28;45343;-78
2022/01/04 08:47:49;;;;;;;;;2.00;0.75;;;;;10.97;72.68;99737.78;5054495;28;45362;-77
2022/01/04 08:50:15;;;;;;;;;0.50;0.00;;;;;10.95;72.19;99747.75;5036137;28;45569;-77
2022/01/04 08:52:41;;;;;;;;;1.75;0.00;;;;;10.95;71.60;99747.75;5055285;28;46040;-75
2022/01/04 08:55:07;;;;;;;;;0.00;0.00;;;;;10.91;72.51;99743.53;5054578;28;45213;-76
2022/01/04 08:57:33;;;;;;;;;1.00;0.00;;;;;10.80;70.60;99731.78;5054419;28;45331;-76
2022/01/04 08:59:58;;;;;;;;;0.00;0.00;;;;;10.77;71.23;99737.31;5053724;28;45404;-76
2022/01/04 09:02:24;;;;;;;;;0.00;0.00;;;;;10.68;72.31;99730.72;5054198;28;45506;-77
2022/01/04 09:04:50;;;;;;;;;0.00;0.00;;;;;10.65;72.49;99730.03;5053547;28;45471;-77
2022/01/04 09:07:16;;;;;;;;;1.00;1.00;;;;;10.59;72.97;99720.56;5054763;28;45323;-76
2022/01/04 09:09:42;;;;;;;;;3.50;0.00;;;;;10.73;73.10;99733.09;5053953;28;45609;-77
2022/01/04 09:12:07;;;;;;;;;0.00;0.00;;;;;10.73;72.12;99747.38;5054338;28;46529;-77
2022/01/04 09:14:55;;;;;;;;;1.50;0.25;;;;;10.80;71.95;99772.81;5053926;28;45299;-78
2022/01/04 09:20:07;;;;;;;;;0.00;0.00;;;;;10.74;72.98;99772.34;5056875;28;45362;-78
2022/01/04 09:22:33;;;;;;;;;2.75;0.25;;;;;10.71;73.07;99751.97;5038926;28;48448;-78
2022/01/04 09:24:58;;;;;;;;;1.75;1.50;;;;;10.69;73.01;99766.44;5057625;28;45299;-77
2022/01/04 09:27:23;;;;;;;;;3.00;3.00;;;;;10.63;73.78;99760.47;5057414;28;45220;-76
2022/01/04 09:29:50;;;;;;;;;3.00;2.00;;;;;10.72;73.76;99760.88;5057709;28;45202;-76
2022/01/04 09:32:17;;;;;;;;;3.50;2.00;;;;;10.56;74.36;99720.75;5057976;28;45477;-77
2022/01/04 09:34:46;;;;;;;;;2.00;2.00;;;;;10.73;73.18;99760.75;5038536;28;45474;-76
2022/01/04 09:37:12;;;;;;;;;4.00;2.00;;;;;10.63;73.48;99745.38;5057067;28;45247;-77
2022/01/04 09:39:38;;;;;;;;;4.50;2.00;;;;;10.63;73.50;99750.72;5058859;28;45568;-77
2022/01/04 09:42:07;;;;;;;;;2.00;2.00;;;;;10.54;73.40;99734.25;5056604;28;46337;-78
2022/01/04 09:44:34;;;;;;;;;2.00;2.00;;;;;10.66;73.87;99734.44;5056933;28;45323;-76
2022/01/04 09:47:02;;;;;;;;;2.50;2.00;;;;;10.53;73.24;99739.72;5056790;28;45251;-77
2022/01/04 09:49:29;;;;;;;;;1.00;1.00;;;;;10.67;73.54;99762.97;5056556;28;45509;-76
2022/01/04 09:51:56;;;;;;;;;3.00;3.00;;;;;10.58;74.02;99743.81;5056356;28;45443;-77
2022/01/04 09:54:26;;;;;;;;;3.25;2.25;;;;;10.79;73.74;99779.19;5056792;28;45331;-76
2022/01/04 09:56:53;;;;;;;;;4.00;2.25;;;;;10.76;73.16;99781.16;5021958;28;45439;-78
2022/01/04 09:59:20;;;;;;;;;3.75;2.00;;;;;10.78;73.41;99784.63;5056912;28;45570;-77
2022/01/04 10:01:51;;;;;;;;;1.25;1.25;;;;;10.69;73.07;99786.06;5038401;28;47294;-77
2022/01/04 10:04:24;;;;;;;;;6.00;3.00;;;;;10.58;73.54;99786.72;5056052;28;45479;-77
2022/01/04 10:07:10;;;;;;;;;3.50;1.00;;;;;10.54;73.88;99795.03;5056680;28;45327;-78
2022/01/04 10:09:38;;;;;;;;;7.00;2.00;;;;;10.51;73.78;99800.56;5055650;28;45182;-77
2022/01/04 10:12:07;;;;;;;;;2.00;1.00;;;;;10.46;73.86;99808.03;5056491;28;46184;-75
2022/01/04 10:14:35;;;;;;;;;1.25;1.25;;;;;10.42;74.41;99809.16;5056104;28;45365;-76
2022/01/04 10:17:06;;;;;;;;;2.00;1.75;;;;;10.44;74.74;99810.81;5056541;28;45218;-76
2022/01/04 10:19:34;;;;;;;;;1.00;1.00;;;;;10.35;73.99;99818.53;5055793;28;45379;-77
2022/01/04 10:22:15;;;;;;;;;2.00;2.00;;;;;10.43;74.17;99824.28;5056112;28;46974;-74
2022/01/04 10:24:41;;;;;;;;;2.00;1.25;;;;;10.45;73.83;99800.97;5056213;28;45377;-76
2022/01/04 10:27:34;;;;;;;;;1.00;1.00;;;;;10.50;74.70;99805.06;5038227;28;45472;-75
2022/01/04 10:30:36;;;;;;;;;1.00;1.00;;;;;10.45;74.09;99768.81;5055719;28;45430;-77
2022/01/04 10:33:05;;;;;;;;;1.50;1.50;;;;;10.63;74.04;99803.34;5044719;28;45480;-77
2022/01/04 10:35:38;;;;;;;;;1.00;1.00;;;;;10.60;74.22;99798.19;5055448;28;45315;-78
2022/01/04 10:38:12;;;;;;;;;0.00;0.00;;;;;10.54;73.67;99792.38;5056306;28;45395;-77
2022/01/04 10:40:40;;;;;;;;;2.75;1.25;;;;;10.54;74.51;99789.69;5055629;28;45428;-78
2022/01/04 10:43:15;;;;;;;;;2.00;1.00;;;;;10.57;73.71;99760.84;5055778;28;45448;-78
2022/01/04 10:45:42;;;;;;;;;1.00;1.00;;;;;10.56;74.07;99761.81;5055942;28;45369;-76
2022/01/04 10:48:11;;;;;;;;;2.50;1.50;;;;;10.53;74.00;99763.84;5055674;28;45392;-76
2022/01/04 10:50:38;;;;;;;;;1.00;1.00;;;;;10.68;73.42;99792.38;5055659;28;45311;-77
2022/01/04 10:53:04;;;;;;;;;2.00;1.00;;;;;10.75;73.30;99782.13;5055165;28;45469;-78
2022/01/04 10:55:35;;;;;;;;;2.50;1.00;;;;;10.73;73.17;99790.25;5055895;28;45412;-76
2022/01/04 10:58:03;;;;;;;;;1.25;1.25;;;;;10.68;73.68;99792.38;5055737;28;45179;-76
2022/01/04 11:00:28;;;;;;;;;2.25;1.00;;;;;10.74;73.69;99788.44;5055655;28;45465;-76
2022/01/04 11:02:54;;;;;;;;;1.00;0.00;;;;;10.63;73.57;99772.19;5055370;28;46078;-76
2022/01/04 11:05:21;;;;;;;;;0.75;0.75;;;;;10.73;73.34;99784.88;5055487;28;45264;-76
2022/01/04 11:08:07;;;;;;;;;2.50;1.75;;;;;10.74;73.78;99781.25;5055458;28;45341;-78
2022/01/04 11:10:35;;;;;;;;;0.50;0.50;;;;;10.69;73.45;99783.38;5056042;28;45284;-77
2022/01/04 11:13:02;;;;;;;;;1.00;1.00;;;;;10.68;74.04;99778.97;5055293;28;45982;-77
2022/01/04 11:15:29;;;;;;;;;2.00;2.00;;;;;10.68;73.64;99781.66;5055346;28;45255;-77
2022/01/04 11:17:56;;;;;;;;;0.50;0.50;;;;;10.73;74.18;99781.34;5055409;28;45481;-77
2022/01/04 11:20:22;;;;;;;;;1.67;1.67;;;;;10.77;74.03;99786.44;5055044;28;45540;-78
2022/01/04 11:22:50;;;;;;;;;2.75;2.75;;;;;10.80;73.82;99780.03;5055087;28;45420;-77
2022/01/04 11:25:19;;;;;;;;;2.00;2.00;;;;;10.92;73.98;99780.13;5057132;28;45458;-75
2022/01/04 11:27:46;;;;;;;;;3.00;2.00;;;;;11.03;73.43;99784.81;5055064;28;45359;-77
2022/01/04 11:30:25;;;;;;;;;3.00;2.00;;;;;11.02;73.50;99766.13;5054867;28;45629;-77
2022/01/04 11:32:57;;;;;;;;;2.00;1.00;;;;;11.08;73.01;99771.97;5042461;28;46239;-76
2022/01/04 11:35:26;;;;;;;;;0.25;0.00;;;;;11.12;72.69;99778.00;5036672;28;45486;-77
2022/01/04 11:37:56;;;;;;;;;2.75;2.00;;;;;10.89;73.56;99757.97;5055445;28;45365;-75
2022/01/04 11:40:36;;;;;;;;;1.75;0.50;;;;;11.00;73.05;99776.94;5054739;28;45303;-79
2022/01/04 11:43:04;;;;;;;;;2.00;1.00;;;;;11.06;73.64;99779.25;5055597;28;45327;-77
2022/01/04 11:45:42;;;;;;;;;2.25;2.00;;;;;11.09;72.99;99787.09;5055093;28;45603;-76
2022/01/04 11:48:41;;;;;;;;;3.75;1.50;;;;;11.08;72.72;99782.69;5054809;28;45453;-75
2022/01/04 11:51:09;;;;;;;;;2.00;2.00;;;;;10.92;72.70;99758.66;5054885;28;45350;-77
2022/01/04 11:53:36;;;;;;;;;1.00;1.00;;;;;10.95;72.83;99773.72;5054399;28;45386;-76
2022/01/04 11:56:06;;;;;;;;;2.00;0.50;;;;;10.97;73.55;99769.94;5054892;28;45477;-77
2022/01/04 11:58:45;;;;;;;;;1.50;1.00;;;;;10.98;73.35;99769.00;5054675;28;45300;-79
2022/01/04 12:01:17;;;;;;;;;1.00;1.00;;;;;11.02;73.23;99766.13;5054279;28;45555;-74
2022/01/04 12:03:47;;;;;;;;;0.00;0.00;;;;;10.92;72.73;99747.06;5054950;28;46129;-76
2022/01/04 12:06:15;;;;;;;;;0.50;0.50;;;;;10.96;73.08;99773.63;5035892;28;45475;-72
2022/01/04 12:08:48;;;;;;;;;1.00;1.00;;;;;11.01;73.63;99784.03;5054613;28;45464;-74
2022/01/04 12:11:20;;;;;;;;;0.00;0.00;;;;;10.96;73.14;99786.16;5036329;28;46287;-72
2022/01/04 12:13:50;;;;;;;;;2.00;0.00;;;;;10.95;73.58;99776.41;5054597;28;45418;-73
2022/01/04 12:16:29;;;;;;;;;2.75;1.00;;;;;10.88;72.71;99762.50;5054629;28;45243;-74
2022/01/04 12:18:57;;;;;;;;;1.75;1.75;;;;;10.97;73.12;99796.78;5054349;28;45443;-74
2022/01/04 12:21:29;;;;;;;;;2.00;2.00;;;;;11.00;73.16;99785.88;5054262;28;45364;-74
2022/01/04 12:23:56;;;;;;;;;1.75;1.00;;;;;11.08;73.13;99785.38;5054088;28;46053;-74
2022/01/04 12:26:24;;;;;;;;;3.50;1.25;;;;;11.13;73.20;99769.88;5054525;28;45314;-74
2022/01/04 12:28:56;;;;;;;;;1.00;1.00;;;;;11.11;71.64;99766.41;5054126;28;45433;-74
2022/01/04 12:31:24;;;;;;;;;1.00;1.00;;;;;11.08;72.70;99763.06;5054159;28;45389;-75
2022/01/04 12:33:58;;;;;;;;;0.00;0.00;;;;;11.09;72.24;99760.28;5053805;28;45365;-74
2022/01/04 12:36:42;;;;;;;;;0.75;0.75;;;;;11.16;73.00;99744.66;5054267;28;45326;-74
2022/01/04 12:39:10;;;;;;;;;1.00;1.00;;;;;11.17;72.31;99749.91;5036011;28;45372;-74
2022/01/04 12:41:38;;;;;;;;;3.00;2.25;;;;;11.14;72.18;99749.28;5054039;28;45384;-73
2022/01/04 12:44:05;;;;;;;;;0.75;0.75;;;;;11.20;72.11;99740.81;5054383;28;45201;-74
2022/01/04 12:46:33;;;;;;;;;2.25;2.25;;;;;11.31;72.37;99743.69;5053967;28;45362;-75
2022/01/04 12:49:04;;;;;;;;;2.00;1.25;;;;;11.24;72.02;99720.88;5054016;28;45373;-74
2022/01/04 12:51:33;;;;;;;;;1.75;0.50;;;;;11.22;71.30;99718.31;5054605;28;45451;-74
2022/01/04 12:54:01;;;;;;;;;2.00;1.50;;;;;11.35;71.38;99721.03;5057362;28;45259;-75
2022/01/04 12:56:27;;;;;;;;;3.50;2.00;;;;;11.23;71.22;99713.78;5057434;28;45479;-76
2022/01/04 12:58:54;;;;;;;;;2.50;2.00;;;;;11.19;71.82;99701.53;5057587;28;45319;-74
2022/01/04 13:01:23;;;;;;;;;1.00;1.00;;;;;11.31;71.56;99720.38;5057382;28;45485;-75
2022/01/04 13:03:49;;;;;;;;;2.75;2.00;;;;;11.18;71.44;99697.13;5057315;28;46413;-73
2022/01/04 13:06:15;;;;;;;;;1.75;0.00;;;;;11.21;71.55;99696.94;5057039;28;45312;-74
2022/01/04 13:08:40;;;;;;;;;1.75;1.75;;;;;11.24;71.69;99686.84;5057601;28;45291;-74
2022/01/04 13:11:08;;;;;;;;;3.00;1.75;;;;;11.25;71.40;99687.72;5057344;28;45276;-73
2022/01/04 13:13:35;;;;;;;;;1.00;1.00;;;;;11.26;71.23;99689.44;5057293;28;45247;-74
2022/01/04 13:16:26;;;;;;;;;2.00;2.00;;;;;11.24;71.33;99694.03;5039075;28;45391;-74
2022/01/04 13:18:52;;;;;;;;;1.00;1.00;;;;;11.30;71.34;99699.88;5057079;28;45283;-75
2022/01/04 13:21:24;;;;;;;;;3.00;1.00;;;;;11.31;71.58;99703.44;5056702;28;45609;-74
2022/01/04 13:23:49;;;;;;;;;1.00;0.00;;;;;11.40;71.36;99696.59;5057271;28;45398;-74
2022/01/04 13:26:15;;;;;;;;;1.75;1.00;;;;;11.40;70.46;99691.25;5057706;28;45252;-75
2022/01/04 13:28:40;;;;;;;;;1.75;1.00;;;;;11.39;70.98;99663.53;5057226;28;45333;-74
2022/01/04 13:31:06;;;;;;;;;2.25;1.00;;;;;11.48;70.93;99672.81;5055884;28;45407;-73
2022/01/04 13:33:38;;;;;;;;;1.75;1.75;;;;;11.42;70.54;99663.31;5055678;28;46031;-74
2022/01/04 13:36:12;;;;;;;;;1.00;1.00;;;;;11.54;70.88;99681.31;5056533;28;45383;-74
2022/01/04 13:38:38;;;;;;;;;1.00;1.00;;;;;11.49;70.56;99666.44;5055699;28;45604;-75
2022/01/04 13:41:05;;;;;;;;;0.75;0.75;;;;;11.52;70.53;99680.53;5055267;28;45445;-74
2022/01/04 13:43:35;;;;;;;;;1.00;1.00;;;;;11.60;70.14;99697.00;5056137;28;45367;-74
2022/01/04 13:46:07;;;;;;;;;0.75;0.50;;;;;11.61;70.50;99695.16;5056838;28;45549;-74
2022/01/04 13:48:38;;;;;;;;;1.00;1.00;;;;;11.62;70.44;99705.81;5056427;28;45400;-75
2022/01/04 13:51:11;;;;;;;;;1.75;0.25;;;;;11.66;70.66;99710.00;5056619;28;45353;-71
2022/01/04 13:53:41;;;;;;;;;1.75;1.00;;;;;11.58;70.09;99693.53;5056364;28;45463;-73
2022/01/04 13:56:13;;;;;;;;;2.00;1.00;;;;;11.57;70.06;99705.22;5056799;28;45360;-73
2022/01/04 13:58:45;;;;;;;;;3.00;1.00;;;;;11.58;69.97;99696.22;5056875;28;45339;-75
2022/01/04 14:01:18;;;;;;;;;1.00;1.00;;;;;11.58;70.21;99680.13;5056330;28;45280;-74
2022/01/04 14:03:46;;;;;;;;;1.25;0.25;;;;;11.63;70.34;99699.47;5055936;28;46134;-74
2022/01/04 14:06:48;;;;;;;;;1.25;1.25;;;;;11.58;69.89;99703.41;5056226;28;45364;-73
2022/01/04 14:09:17;;;;;;;;;2.00;1.00;;;;;11.53;70.16;99706.41;5052553;28;45198;-74
2022/01/04 14:11:48;;;;;;;;;3.25;1.00;;;;;11.55;69.85;99699.13;5056639;28;45484;-74
2022/01/04 14:14:16;;;;;;;;;1.00;1.00;;;;;11.63;70.20;99704.00;5056101;28;45465;-72
2022/01/04 14:16:43;;;;;;;;;1.75;0.75;;;;;11.64;70.27;99698.53;5056508;28;45321;-76
2022/01/04 14:19:11;;;;;;;;;1.00;1.00;;;;;11.67;69.64;99695.59;5056192;28;45296;-73
2022/01/04 14:21:57;;;;;;;;;2.00;1.00;;;;;11.69;69.80;99706.25;5056105;28;45389;-73
2022/01/04 14:24:44;;;;;;;;;2.75;1.00;;;;;11.66;70.00;99709.13;5056006;28;46475;-73
2022/01/04 14:27:09;;;;;;;;;2.00;1.00;;;;;11.67;69.27;99714.41;5056369;28;45395;-74
2022/01/04 14:29:42;;;;;;;;;1.25;1.25;;;;;11.63;69.24;99710.22;5056240;28;45491;-75
2022/01/04 14:32:19;;;;;;;;;2.00;2.00;;;;;11.51;70.19;99699.41;5055934;28;45469;-74
2022/01/04 14:34:45;;;;;;;;;2.00;1.00;;;;;11.57;69.82;99720.50;5056008;28;46124;-73
2022/01/04 14:37:11;;;;;;;;;0.75;0.75;;;;;11.34;70.39;99687.13;5055672;28;45631;-74
2022/01/04 14:39:37;;;;;;;;;4.25;1.00;;;;;11.51;70.21;99705.66;5056179;28;45414;-72
2022/01/04 14:42:03;;;;;;;;;2.00;1.00;;;;;11.56;69.79;99698.16;5055718;28;45402;-73
2022/01/04 14:44:29;;;;;;;;;4.00;1.00;;;;;11.68;69.29;99699.16;5055993;28;45378;-75
2022/01/04 14:46:56;;;;;;;;;1.00;1.00;;;;;11.68;69.26;99696.47;5055448;28;45311;-74
2022/01/04 14:49:22;;;;;;;;;4.00;1.00;;;;;11.59;68.88;99699.78;5037240;28;45368;-74
2022/01/04 14:51:48;;;;;;;;;2.00;2.00;;;;;11.49;69.87;99686.09;5055442;28;45460;-73
2022/01/04 14:54:13;;;;;;;;;1.00;1.00;;;;;11.40;69.72;99701.97;5056364;28;45343;-73
2022/01/04 14:56:43;;;;;;;;;2.25;2.25;;;;;11.36;69.77;99698.63;5055934;28;45324;-73
2022/01/04 14:59:09;;;;;;;;;1.50;1.00;;;;;11.37;69.65;99689.59;5037811;28;45370;-73
2022/01/04 15:01:36;;;;;;;;;1.50;1.50;;;;;11.26;69.50;99659.94;5055312;28;45404;-74
2022/01/04 15:04:02;;;;;;;;;0.00;0.00;;;;;11.52;69.71;99690.41;5055074;28;46105;-73
2022/01/04 15:06:28;;;;;;;;;2.25;1.00;;;;;11.58;69.43;99698.91;5036863;28;46183;-74
2022/01/04 15:08:53;;;;;;;;;4.75;1.00;;;;;11.51;68.98;99704.78;5055614;28;45334;-73
2022/01/04 15:11:19;;;;;;;;;1.00;1.00;;;;;11.45;69.13;99711.44;5055233;28;45373;-74
2022/01/04 15:13:45;;;;;;;;;2.25;1.50;;;;;11.38;68.56;99705.63;5054960;28;45330;-74
2022/01/04 15:16:10;;;;;;;;;5.00;1.25;;;;;11.33;69.56;99705.03;5054069;28;45515;-74
2022/01/04 15:18:36;;;;;;;;;3.25;1.00;;;;;11.37;69.72;99694.97;5055451;28;45581;-74
2022/01/04 15:21:01;;;;;;;;;2.50;1.00;;;;;11.40;69.18;99688.56;5036666;28;46102;-73
2022/01/04 15:23:26;;;;;;;;;1.00;1.00;;;;;11.42;68.63;99695.53;5036695;28;47132;-74
2022/01/04 15:25:53;;;;;;;;;2.00;1.00;;;;;11.34;68.53;99693.34;5036980;28;45425;-78
2022/01/04 15:28:22;;;;;;;;;9.00;1.00;;;;;11.48;68.33;99710.38;5037400;28;45344;-77
2022/01/04 15:30:49;;;;;;;;;2.75;0.75;;;;;11.50;68.94;99706.59;5055739;28;45240;-79
2022/01/04 15:33:16;;;;;;;;;3.00;1.00;;;;;11.35;68.48;99703.13;5038267;28;46227;-79
2022/01/04 15:35:46;;;;;;;;;1.00;1.00;;;;;11.20;68.30;99697.91;5039390;28;45688;-78
2022/01/04 15:38:13;;;;;;;;;1.00;1.00;;;;;11.26;68.94;99710.91;5057121;28;45572;-77
2022/01/04 15:40:40;;;;;;;;;1.00;1.00;;;;;11.27;69.09;99700.06;5037730;28;46069;-74
2022/01/04 15:43:05;;;;;;;;;1.00;1.00;;;;;11.20;68.79;99712.19;5055071;28;45569;-73
2022/01/04 15:45:31;;;;;;;;;1.75;1.75;;;;;11.22;68.75;99707.59;5054979;28;45377;-76
2022/01/04 15:47:57;;;;;;;;;1.50;0.50;;;;;11.15;68.56;99679.41;5055171;28;45517;-77
2022/01/04 15:50:23;;;;;;;;;1.50;1.50;;;;;11.14;68.91;99701.84;5054587;28;45547;-78
2022/01/04 15:52:51;;;;;;;;;1.00;1.00;;;;;11.23;69.03;99719.13;5054844;28;46657;-76
2022/01/04 15:55:17;;;;;;;;;2.00;1.00;;;;;11.21;68.98;99710.34;5054771;28;45343;-76
2022/01/04 15:57:42;;;;;;;;;4.00;3.00;;;;;11.24;68.96;99715.50;5054835;28;45264;-76
2022/01/04 16:00:09;;;;;;;;;2.00;1.00;;;;;11.18;69.33;99706.03;5054824;28;45235;-77
2022/01/04 16:02:35;;;;;;;;;1.50;1.00;;;;;11.13;69.09;99688.53;5054944;28;45314;-76
2022/01/04 16:05:01;;;;;;;;;2.00;2.00;;;;;11.02;69.30;99680.31;5054321;28;45275;-75
2022/01/04 16:07:27;;;;;;;;;3.75;2.00;;;;;11.03;68.91;99685.59;5054524;28;45461;-76
2022/01/04 16:09:52;;;;;;;;;1.00;1.00;;;;;10.98;69.47;99712.69;5054328;28;45351;-75
2022/01/04 16:12:19;;;;;;;;;3.00;1.00;;;;;11.11;69.06;99718.13;5036558;28;47030;-76
2022/01/04 16:14:44;;;;;;;;;6.00;2.00;;;;;11.18;69.18;99716.78;5054681;28;45382;-77
2022/01/04 16:17:38;;;;;;;;;4.00;1.00;;;;;11.25;68.26;99715.41;5054503;28;45485;-77
2022/01/04 16:22:41;;;;;;;;;2.25;1.25;;;;;11.22;68.84;99723.69;5054225;28;45799;-78
2022/01/04 16:25:07;;;;;;;;;1.00;1.00;;;;;11.19;69.23;99723.00;5054380;28;45453;-78
2022/01/04 16:27:33;;;;;;;;;2.00;2.00;;;;;11.06;69.20;99728.28;5055388;28;45323;-77
2022/01/04 16:30:00;;;;;;;;;1.25;1.00;;;;;11.04;69.83;99743.63;5057925;28;45519;-76
2022/01/04 16:32:27;;;;;;;;;2.75;2.25;;;;;11.05;69.49;99747.19;5057652;28;45488;-77
2022/01/04 16:34:54;;;;;;;;;3.00;2.00;;;;;11.07;69.09;99748.78;5057740;28;45447;-78
2022/01/04 16:37:19;;;;;;;;;0.75;0.75;;;;;11.04;68.46;99738.25;5057791;28;45430;-77
2022/01/04 16:39:44;;;;;;;;;3.00;1.50;;;;;11.00;68.28;99726.84;5057652;28;45421;-79
2022/01/04 16:42:11;;;;;;;;;0.50;0.25;;;;;10.92;67.51;99726.50;5057796;28;45416;-79
2022/01/04 16:44:37;;;;;;;;;3.25;1.25;;;;;11.00;67.24;99740.28;5058178;28;45338;-78
2022/01/04 16:47:02;;;;;;;;;1.00;1.00;;;;;11.02;67.35;99747.34;5057753;28;45412;-78
2022/01/04 16:49:28;;;;;;;;;2.25;0.00;;;;;10.78;64.08;99715.78;5057612;28;45300;-78
2022/01/04 16:51:56;;;;;;;;;1.00;1.00;;;;;10.91;61.47;99777.53;5057153;28;45978;-79
2022/01/04 16:54:22;;;;;;;;;0.00;0.00;;;;;10.71;61.13;99767.19;5057698;28;45391;-77
2022/01/04 16:56:48;;;;;;;;;1.00;0.00;;;;;10.54;59.06;99784.31;5057445;28;45464;-78
2022/01/04 16:59:16;;;;;;;;;0.00;0.00;;;;;10.53;60.41;99764.69;5057499;28;45294;-77
2022/01/04 17:01:45;;;;;;;;;2.25;0.00;;;;;10.54;59.71;99745.00;5057205;28;46173;-77
2022/01/04 17:04:16;;;;;;;;;0.00;0.00;;;;;10.50;60.08;99753.28;5057301;28;45648;-77
2022/01/04 17:06:42;;;;;;;;;0.00;0.00;;;;;10.57;60.26;99760.00;5039210;28;45397;-77
2022/01/04 17:09:07;;;;;;;;;0.25;0.00;;;;;10.54;59.84;99768.25;5057338;28;45420;-75
2022/01/04 17:11:35;;;;;;;;;0.00;0.00;;;;;10.42;59.80;99748.41;5057369;28;46241;-76
2022/01/04 17:16:43;;;;;;;;;0.00;0.00;;;;;10.47;59.50;99783.81;5057849;28;45321;-78
2022/01/04 17:19:09;;;;;;;;;1.25;0.00;;;;;10.38;59.50;99770.13;5057432;28;45546;-77
2022/01/04 17:21:41;;;;;;;;;3.00;0.00;;;;;10.31;60.57;99788.38;5057407;28;45506;-77